RYR61LJ LEPA-LEZL
Flight info
| Callsign | RYR61LJ |
|---|---|
| Flight time | 1h 12m |
| Altitude | 37000 |
| Route | EPAMA N733 VLC M985 YES N747 BLN |
| Aircraft | A320/M-SDE3FGHIRWY/LB1 |
Departure
| Time | 2026-04-23 16:51 |
|---|---|
| Airport | Palma de Mallorca Airport (LEPA) |
Arrival
| Time | 2026-04-23 18:03 |
|---|---|
| Airport | Seville Airport (LEZL) |
| Time | Latitude | Longitude | Altitude | Speed | Heading |
|---|---|---|---|---|---|
| 2026-04-23 16:35 | 39.54798 | 2.73594 | 37 ft | 0 kts | 58° |
| 2026-04-23 16:41 | 39.54788 | 2.73575 | 37 ft | 4 kts | 42° |
| 2026-04-23 16:41 | 39.54765 | 2.73558 | 38 ft | 4 kts | 10° |
| 2026-04-23 16:42 | 39.54739 | 2.73558 | 36 ft | 4 kts | 342° |
| 2026-04-23 16:42 | 39.54727 | 2.73564 | 36 ft | 0 kts | 329° |
| 2026-04-23 16:45 | 39.54731 | 2.73561 | 37 ft | 3 kts | 329° |
| 2026-04-23 16:45 | 39.54766 | 2.73522 | 38 ft | 9 kts | 296° |
| 2026-04-23 16:45 | 39.54738 | 2.73470 | 38 ft | 7 kts | 180° |
| 2026-04-23 16:45 | 39.54676 | 2.73518 | 38 ft | 13 kts | 147° |
| 2026-04-23 16:46 | 39.54604 | 2.73542 | 38 ft | 10 kts | 217° |
| 2026-04-23 16:46 | 39.54556 | 2.73454 | 38 ft | 14 kts | 238° |
| 2026-04-23 16:46 | 39.54508 | 2.73353 | 38 ft | 13 kts | 238° |
| 2026-04-23 16:46 | 39.54463 | 2.73257 | 38 ft | 14 kts | 239° |
| 2026-04-23 16:47 | 39.54389 | 2.73224 | 38 ft | 12 kts | 168° |
| 2026-04-23 16:47 | 39.54332 | 2.73170 | 38 ft | 10 kts | 220° |
| 2026-04-23 16:47 | 39.54278 | 2.73190 | 38 ft | 8 kts | 135° |
| 2026-04-23 16:47 | 39.54271 | 2.73236 | 38 ft | 0 kts | 91° |
| 2026-04-23 16:49 | 39.54271 | 2.73241 | 38 ft | 4 kts | 91° |
| 2026-04-23 16:49 | 39.54269 | 2.73319 | 38 ft | 11 kts | 91° |
| 2026-04-23 16:49 | 39.54268 | 2.73423 | 38 ft | 13 kts | 91° |
| 2026-04-23 16:50 | 39.54296 | 2.73530 | 36 ft | 14 kts | 58° |
| 2026-04-23 16:50 | 39.54402 | 2.73755 | 38 ft | 60 kts | 58° |
| 2026-04-23 16:50 | 39.54736 | 2.74468 | 38 ft | 122 kts | 58° |
| 2026-04-23 16:50 | 39.55266 | 2.75584 | 165 ft | 158 kts | 59° |
| 2026-04-23 16:51 | 39.55858 | 2.76848 | 705 ft | 171 kts | 60° |
| 2026-04-23 16:51 | 39.56499 | 2.78217 | 1371 ft | 183 kts | 60° |
| 2026-04-23 16:51 | 39.57183 | 2.79664 | 1953 ft | 196 kts | 60° |
| 2026-04-23 16:51 | 39.57910 | 2.81268 | 2410 ft | 215 kts | 60° |
| 2026-04-23 16:52 | 39.58665 | 2.82955 | 3180 ft | 219 kts | 59° |
| 2026-04-23 16:52 | 39.59445 | 2.84689 | 3904 ft | 226 kts | 58° |
| 2026-04-23 16:52 | 39.60250 | 2.86466 | 4629 ft | 231 kts | 58° |
| 2026-04-23 16:52 | 39.61074 | 2.88282 | 5383 ft | 235 kts | 58° |
| 2026-04-23 16:53 | 39.62037 | 2.89986 | 6171 ft | 236 kts | 36° |
| 2026-04-23 16:53 | 39.63504 | 2.90846 | 6899 ft | 234 kts | 4° |
| 2026-04-23 16:53 | 39.65089 | 2.90541 | 7633 ft | 232 kts | 332° |
| 2026-04-23 16:53 | 39.66297 | 2.89200 | 8380 ft | 231 kts | 301° |
| 2026-04-23 16:54 | 39.66948 | 2.87297 | 9165 ft | 232 kts | 290° |
| 2026-04-23 16:54 | 39.67455 | 2.85302 | 9990 ft | 233 kts | 287° |
| 2026-04-23 16:54 | 39.67866 | 2.83296 | 10735 ft | 234 kts | 283° |
| 2026-04-23 16:54 | 39.68190 | 2.81228 | 11491 ft | 235 kts | 280° |
| 2026-04-23 16:55 | 39.68412 | 2.79121 | 12256 ft | 236 kts | 277° |
| 2026-04-23 16:55 | 39.68524 | 2.76959 | 13045 ft | 237 kts | 274° |
| 2026-04-23 16:55 | 39.68531 | 2.74838 | 13796 ft | 240 kts | 270° |
| 2026-04-23 16:55 | 39.68421 | 2.72584 | 14080 ft | 262 kts | 266° |
| 2026-04-23 16:56 | 39.68245 | 2.70123 | 14263 ft | 285 kts | 268° |
| 2026-04-23 16:56 | 39.68104 | 2.67449 | 14416 ft | 309 kts | 268° |
| 2026-04-23 16:56 | 39.67970 | 2.64524 | 14586 ft | 330 kts | 268° |
| 2026-04-23 16:56 | 39.67836 | 2.61551 | 15049 ft | 338 kts | 268° |
| 2026-04-23 16:57 | 39.67695 | 2.58477 | 15628 ft | 344 kts | 268° |
| 2026-04-23 16:57 | 39.67547 | 2.55367 | 16295 ft | 347 kts | 268° |
| 2026-04-23 16:57 | 39.67395 | 2.52229 | 16937 ft | 350 kts | 268° |
| 2026-04-23 16:57 | 39.67239 | 2.49056 | 17576 ft | 354 kts | 267° |
| 2026-04-23 16:58 | 39.67079 | 2.45846 | 18207 ft | 358 kts | 267° |
| 2026-04-23 16:58 | 39.66918 | 2.42608 | 18760 ft | 361 kts | 267° |
| 2026-04-23 16:58 | 39.66753 | 2.39341 | 19316 ft | 364 kts | 267° |
| 2026-04-23 16:58 | 39.66584 | 2.36050 | 19875 ft | 367 kts | 267° |
| 2026-04-23 16:59 | 39.66412 | 2.32727 | 20431 ft | 370 kts | 267° |
| 2026-04-23 16:59 | 39.66239 | 2.29384 | 20998 ft | 373 kts | 267° |
| 2026-04-23 16:59 | 39.66065 | 2.26019 | 21558 ft | 375 kts | 267° |
| 2026-04-23 16:59 | 39.65890 | 2.22624 | 22108 ft | 378 kts | 267° |
| 2026-04-23 17:00 | 39.65713 | 2.19203 | 22656 ft | 381 kts | 267° |
| 2026-04-23 17:00 | 39.65531 | 2.15755 | 23172 ft | 384 kts | 267° |
| 2026-04-23 17:00 | 39.65346 | 2.12284 | 23680 ft | 387 kts | 267° |
| 2026-04-23 17:00 | 39.65161 | 2.08789 | 24098 ft | 390 kts | 267° |
| 2026-04-23 17:01 | 39.64972 | 2.05268 | 24521 ft | 393 kts | 267° |
| 2026-04-23 17:01 | 39.64517 | 2.01762 | 24912 ft | 398 kts | 254° |
| 2026-04-23 17:01 | 39.63625 | 1.98349 | 25310 ft | 400 kts | 253° |
| 2026-04-23 17:01 | 39.62708 | 1.94929 | 25694 ft | 403 kts | 252° |
| 2026-04-23 17:02 | 39.62092 | 1.92657 | 25945 ft | 404 kts | 252° |
| 2026-04-23 17:02 | 39.60832 | 1.88039 | 26447 ft | 408 kts | 252° |
| 2026-04-23 17:02 | 39.59882 | 1.84562 | 26811 ft | 410 kts | 252° |
| 2026-04-23 17:02 | 39.58922 | 1.81068 | 27167 ft | 412 kts | 252° |
| 2026-04-23 17:03 | 39.57960 | 1.77555 | 27520 ft | 415 kts | 252° |
| 2026-04-23 17:03 | 39.56998 | 1.74022 | 27878 ft | 417 kts | 252° |
| 2026-04-23 17:03 | 39.56032 | 1.70469 | 28224 ft | 419 kts | 252° |
| 2026-04-23 17:03 | 39.55055 | 1.66895 | 28567 ft | 422 kts | 252° |
| 2026-04-23 17:04 | 39.54084 | 1.63353 | 28889 ft | 424 kts | 252° |
| 2026-04-23 17:04 | 39.53094 | 1.59750 | 29209 ft | 426 kts | 252° |
| 2026-04-23 17:04 | 39.52080 | 1.56075 | 29510 ft | 429 kts | 252° |
| 2026-04-23 17:04 | 39.51076 | 1.52429 | 29803 ft | 431 kts | 252° |
| 2026-04-23 17:05 | 39.50079 | 1.48814 | 30097 ft | 433 kts | 252° |
| 2026-04-23 17:05 | 39.49065 | 1.45137 | 30342 ft | 435 kts | 252° |
| 2026-04-23 17:05 | 39.48045 | 1.41432 | 30580 ft | 437 kts | 252° |
| 2026-04-23 17:05 | 39.47021 | 1.37721 | 30808 ft | 439 kts | 252° |
| 2026-04-23 17:06 | 39.45988 | 1.33997 | 31045 ft | 440 kts | 252° |
| 2026-04-23 17:06 | 39.44934 | 1.30217 | 31260 ft | 442 kts | 252° |
| 2026-04-23 17:06 | 39.43904 | 1.26525 | 31526 ft | 442 kts | 252° |
| 2026-04-23 17:06 | 39.42861 | 1.22793 | 31849 ft | 440 kts | 252° |
| 2026-04-23 17:07 | 39.41822 | 1.19068 | 32165 ft | 439 kts | 252° |
| 2026-04-23 17:07 | 39.40790 | 1.15356 | 32480 ft | 439 kts | 252° |
| 2026-04-23 17:07 | 39.39760 | 1.11653 | 32791 ft | 438 kts | 252° |
| 2026-04-23 17:07 | 39.38729 | 1.07964 | 33098 ft | 437 kts | 252° |
| 2026-04-23 17:08 | 39.37693 | 1.04270 | 33419 ft | 436 kts | 252° |
| 2026-04-23 17:08 | 39.36657 | 1.00593 | 33724 ft | 435 kts | 252° |
| 2026-04-23 17:08 | 39.35620 | 0.96914 | 34042 ft | 434 kts | 252° |
| 2026-04-23 17:08 | 39.34588 | 0.93253 | 34320 ft | 434 kts | 253° |
| 2026-04-23 17:09 | 39.33557 | 0.89595 | 34584 ft | 433 kts | 253° |
| 2026-04-23 17:09 | 39.32525 | 0.85944 | 34834 ft | 433 kts | 253° |
| 2026-04-23 17:09 | 39.31490 | 0.82293 | 35082 ft | 432 kts | 253° |
| 2026-04-23 17:09 | 39.30457 | 0.78650 | 35328 ft | 432 kts | 253° |
| 2026-04-23 17:10 | 39.29426 | 0.75010 | 35552 ft | 432 kts | 253° |
| 2026-04-23 17:10 | 39.28743 | 0.72601 | 35701 ft | 432 kts | 253° |
| 2026-04-23 17:10 | 39.27362 | 0.67740 | 35992 ft | 431 kts | 253° |
| 2026-04-23 17:10 | 39.26677 | 0.65331 | 36136 ft | 431 kts | 253° |
| 2026-04-23 17:11 | 39.25646 | 0.61701 | 36358 ft | 431 kts | 253° |
| 2026-04-23 17:11 | 39.24613 | 0.58079 | 36550 ft | 430 kts | 253° |
| 2026-04-23 17:11 | 39.23577 | 0.54457 | 36751 ft | 430 kts | 253° |
| 2026-04-23 17:11 | 39.22542 | 0.50838 | 36944 ft | 430 kts | 253° |
| 2026-04-23 17:12 | 39.21505 | 0.47219 | 37095 ft | 430 kts | 253° |
| 2026-04-23 17:12 | 39.20466 | 0.43606 | 37112 ft | 430 kts | 252° |
| 2026-04-23 17:12 | 39.18385 | 0.36391 | 37112 ft | 429 kts | 252° |
| 2026-04-23 17:13 | 39.16309 | 0.29180 | 37111 ft | 429 kts | 252° |
| 2026-04-23 17:13 | 39.14231 | 0.21966 | 37114 ft | 429 kts | 252° |
| 2026-04-23 17:14 | 39.12148 | 0.14757 | 37113 ft | 429 kts | 252° |
| 2026-04-23 17:14 | 39.10051 | 0.07570 | 37117 ft | 429 kts | 252° |
| 2026-04-23 17:15 | 39.07944 | 0.00367 | 37116 ft | 430 kts | 252° |
| 2026-04-23 17:15 | 39.05835 | -0.06826 | 37116 ft | 430 kts | 252° |
| 2026-04-23 17:16 | 39.03742 | -0.14024 | 37089 ft | 429 kts | 253° |
| 2026-04-23 17:16 | 39.01902 | -0.21299 | 37064 ft | 427 kts | 256° |
| 2026-04-23 17:17 | 39.00243 | -0.28632 | 37040 ft | 427 kts | 256° |
| 2026-04-23 17:17 | 38.98568 | -0.35951 | 37024 ft | 427 kts | 255° |
| 2026-04-23 17:18 | 38.95955 | -0.46890 | 37007 ft | 427 kts | 255° |
| 2026-04-23 17:19 | 38.94206 | -0.54118 | 37024 ft | 427 kts | 255° |
| 2026-04-23 17:19 | 38.92450 | -0.61403 | 37040 ft | 427 kts | 255° |
| 2026-04-23 17:20 | 38.90679 | -0.68736 | 37062 ft | 427 kts | 254° |
| 2026-04-23 17:21 | 38.87170 | -0.83230 | 37095 ft | 427 kts | 254° |
| 2026-04-23 17:21 | 38.84515 | -0.94129 | 37112 ft | 427 kts | 254° |
| 2026-04-23 17:22 | 38.81850 | -1.05020 | 37105 ft | 426 kts | 254° |
| 2026-04-23 17:23 | 38.79172 | -1.15894 | 37105 ft | 426 kts | 253° |
| 2026-04-23 17:24 | 38.76482 | -1.26749 | 37107 ft | 426 kts | 253° |
| 2026-04-23 17:24 | 38.73799 | -1.37595 | 37103 ft | 426 kts | 253° |
| 2026-04-23 17:25 | 38.71096 | -1.48429 | 37101 ft | 426 kts | 253° |
| 2026-04-23 17:26 | 38.67477 | -1.62856 | 37089 ft | 426 kts | 252° |
| 2026-04-23 17:27 | 38.64757 | -1.73673 | 37089 ft | 426 kts | 252° |
| 2026-04-23 17:27 | 38.62947 | -1.80829 | 37090 ft | 426 kts | 252° |
| 2026-04-23 17:28 | 38.61113 | -1.88075 | 37089 ft | 425 kts | 252° |
| 2026-04-23 17:28 | 38.59287 | -1.95267 | 37091 ft | 425 kts | 252° |
| 2026-04-23 17:29 | 38.57456 | -2.02446 | 37088 ft | 425 kts | 252° |
| 2026-04-23 17:30 | 38.54711 | -2.13154 | 37086 ft | 424 kts | 252° |
| 2026-04-23 17:30 | 38.51955 | -2.23890 | 37078 ft | 424 kts | 251° |
| 2026-04-23 17:31 | 38.50112 | -2.31038 | 37065 ft | 424 kts | 251° |
| 2026-04-23 17:31 | 38.48264 | -2.38184 | 37060 ft | 424 kts | 251° |
| 2026-04-23 17:32 | 38.46410 | -2.45325 | 37042 ft | 424 kts | 251° |
| 2026-04-23 17:32 | 38.44547 | -2.52461 | 37040 ft | 424 kts | 251° |
| 2026-04-23 17:33 | 38.42683 | -2.59593 | 37026 ft | 424 kts | 251° |
| 2026-04-23 17:33 | 38.40821 | -2.66727 | 37018 ft | 424 kts | 251° |
| 2026-04-23 17:34 | 38.38950 | -2.73864 | 37007 ft | 425 kts | 251° |
| 2026-04-23 17:35 | 38.36133 | -2.84571 | 36983 ft | 425 kts | 251° |
| 2026-04-23 17:35 | 38.33305 | -2.95292 | 36978 ft | 426 kts | 250° |
| 2026-04-23 17:36 | 38.31409 | -3.02432 | 36974 ft | 426 kts | 250° |
| 2026-04-23 17:36 | 38.29502 | -3.09572 | 36974 ft | 426 kts | 250° |
| 2026-04-23 17:37 | 38.27592 | -3.16711 | 36980 ft | 426 kts | 250° |
| 2026-04-23 17:38 | 38.24731 | -3.27407 | 36978 ft | 426 kts | 250° |
| 2026-04-23 17:38 | 38.22816 | -3.34530 | 36972 ft | 426 kts | 250° |
| 2026-04-23 17:39 | 38.20907 | -3.41602 | 36977 ft | 425 kts | 250° |
| 2026-04-23 17:39 | 38.18984 | -3.48710 | 36975 ft | 425 kts | 250° |
| 2026-04-23 17:40 | 38.17058 | -3.55810 | 36974 ft | 425 kts | 250° |
| 2026-04-23 17:40 | 38.15134 | -3.62909 | 36980 ft | 425 kts | 251° |
| 2026-04-23 17:41 | 38.13485 | -3.70107 | 36977 ft | 425 kts | 254° |
| 2026-04-23 17:41 | 38.11332 | -3.81014 | 36985 ft | 424 kts | 255° |
| 2026-04-23 17:42 | 38.09820 | -3.88317 | 35854 ft | 432 kts | 252° |
| 2026-04-23 17:42 | 38.09030 | -3.91999 | 35104 ft | 432 kts | 251° |
| 2026-04-23 17:42 | 38.08231 | -3.95683 | 34276 ft | 435 kts | 251° |
| 2026-04-23 17:43 | 38.07426 | -3.99392 | 33398 ft | 438 kts | 251° |
| 2026-04-23 17:43 | 38.06620 | -4.03121 | 32753 ft | 434 kts | 251° |
| 2026-04-23 17:43 | 38.05832 | -4.06789 | 32222 ft | 429 kts | 251° |
| 2026-04-23 17:43 | 38.05052 | -4.10432 | 31650 ft | 426 kts | 251° |
| 2026-04-23 17:44 | 38.04278 | -4.14041 | 31084 ft | 422 kts | 251° |
| 2026-04-23 17:44 | 38.03506 | -4.17622 | 30537 ft | 419 kts | 251° |
| 2026-04-23 17:44 | 38.01986 | -4.24663 | 29402 ft | 413 kts | 251° |
| 2026-04-23 17:45 | 38.01232 | -4.28158 | 28870 ft | 409 kts | 251° |
| 2026-04-23 17:45 | 37.99742 | -4.35045 | 27819 ft | 401 kts | 251° |
| 2026-04-23 17:45 | 37.99006 | -4.38440 | 27317 ft | 398 kts | 251° |
| 2026-04-23 17:46 | 37.97545 | -4.45140 | 26319 ft | 391 kts | 251° |
| 2026-04-23 17:46 | 37.96818 | -4.48447 | 25860 ft | 388 kts | 250° |
| 2026-04-23 17:46 | 37.96094 | -4.51732 | 25388 ft | 386 kts | 250° |
| 2026-04-23 17:47 | 37.95376 | -4.54996 | 24929 ft | 383 kts | 250° |
| 2026-04-23 17:47 | 37.94662 | -4.58240 | 24483 ft | 381 kts | 250° |
| 2026-04-23 17:47 | 37.93249 | -4.64670 | 23559 ft | 377 kts | 250° |
| 2026-04-23 17:48 | 37.92546 | -4.67859 | 23040 ft | 375 kts | 250° |
| 2026-04-23 17:48 | 37.91846 | -4.71020 | 22587 ft | 371 kts | 250° |
| 2026-04-23 17:48 | 37.91103 | -4.74140 | 21896 ft | 370 kts | 244° |
| 2026-04-23 17:48 | 37.89833 | -4.76988 | 20903 ft | 377 kts | 233° |
| 2026-04-23 17:49 | 37.88366 | -4.79790 | 20250 ft | 380 kts | 233° |
| 2026-04-23 17:49 | 37.86917 | -4.82552 | 19850 ft | 373 kts | 233° |
| 2026-04-23 17:49 | 37.85501 | -4.85251 | 19049 ft | 366 kts | 233° |
| 2026-04-23 17:49 | 37.84100 | -4.87919 | 18188 ft | 362 kts | 233° |
| 2026-04-23 17:50 | 37.82714 | -4.90554 | 17213 ft | 357 kts | 233° |
| 2026-04-23 17:50 | 37.80026 | -4.95673 | 15955 ft | 340 kts | 233° |
| 2026-04-23 17:50 | 37.78740 | -4.98126 | 15531 ft | 338 kts | 233° |
| 2026-04-23 17:51 | 37.77425 | -5.00628 | 15103 ft | 336 kts | 233° |
| 2026-04-23 17:51 | 37.76153 | -5.03046 | 14683 ft | 334 kts | 233° |
| 2026-04-23 17:51 | 37.73569 | -5.07942 | 13827 ft | 331 kts | 233° |
| 2026-04-23 17:52 | 37.72310 | -5.10325 | 13372 ft | 330 kts | 233° |
| 2026-04-23 17:52 | 37.69785 | -5.15098 | 12497 ft | 325 kts | 233° |
| 2026-04-23 17:52 | 37.68538 | -5.17454 | 12111 ft | 321 kts | 233° |
| 2026-04-23 17:53 | 37.66072 | -5.22109 | 11267 ft | 317 kts | 234° |
| 2026-04-23 17:53 | 37.64849 | -5.24417 | 10831 ft | 316 kts | 234° |
| 2026-04-23 17:53 | 37.63630 | -5.26714 | 10404 ft | 314 kts | 234° |
| 2026-04-23 17:54 | 37.62428 | -5.28985 | 10181 ft | 306 kts | 234° |
| 2026-04-23 17:54 | 37.61269 | -5.31176 | 10066 ft | 294 kts | 234° |
| 2026-04-23 17:54 | 37.59036 | -5.35391 | 9400 ft | 288 kts | 234° |
| 2026-04-23 17:55 | 37.56828 | -5.39527 | 8627 ft | 284 kts | 234° |
| 2026-04-23 17:55 | 37.55740 | -5.41562 | 8166 ft | 275 kts | 234° |
| 2026-04-23 17:55 | 37.54690 | -5.43530 | 7717 ft | 267 kts | 234° |
| 2026-04-23 17:56 | 37.53664 | -5.45457 | 7300 ft | 264 kts | 233° |
| 2026-04-23 17:56 | 37.51617 | -5.49281 | 6544 ft | 262 kts | 233° |
| 2026-04-23 17:56 | 37.50600 | -5.51184 | 6152 ft | 262 kts | 234° |
| 2026-04-23 17:57 | 37.49595 | -5.53063 | 5748 ft | 253 kts | 234° |
| 2026-04-23 17:57 | 37.48637 | -5.54858 | 5387 ft | 242 kts | 234° |
| 2026-04-23 17:57 | 37.46783 | -5.58326 | 4651 ft | 237 kts | 234° |
| 2026-04-23 17:58 | 37.45862 | -5.60041 | 4280 ft | 235 kts | 235° |
| 2026-04-23 17:58 | 37.44948 | -5.61738 | 3912 ft | 234 kts | 235° |
| 2026-04-23 17:58 | 37.44035 | -5.63438 | 3542 ft | 234 kts | 235° |
| 2026-04-23 17:58 | 37.43129 | -5.65132 | 3177 ft | 234 kts | 235° |
| 2026-04-23 17:59 | 37.42517 | -5.66278 | 2921 ft | 233 kts | 236° |
| 2026-04-23 17:59 | 37.41887 | -5.68103 | 2569 ft | 234 kts | 260° |
| 2026-04-23 17:59 | 37.41822 | -5.70144 | 2218 ft | 233 kts | 269° |
| 2026-04-23 17:59 | 37.41830 | -5.72154 | 2027 ft | 225 kts | 268° |
| 2026-04-23 18:00 | 37.41832 | -5.74047 | 2020 ft | 208 kts | 267° |
| 2026-04-23 18:00 | 37.41829 | -5.75826 | 1895 ft | 200 kts | 268° |
| 2026-04-23 18:00 | 37.41826 | -5.77520 | 1687 ft | 186 kts | 268° |
| 2026-04-23 18:00 | 37.41823 | -5.79074 | 1454 ft | 171 kts | 266° |
| 2026-04-23 18:01 | 37.41820 | -5.80506 | 1221 ft | 157 kts | 266° |
| 2026-04-23 18:01 | 37.41817 | -5.81816 | 1037 ft | 143 kts | 266° |
| 2026-04-23 18:01 | 37.41814 | -5.83023 | 846 ft | 134 kts | 266° |
| 2026-04-23 18:01 | 37.41810 | -5.84191 | 669 ft | 133 kts | 267° |
| 2026-04-23 18:02 | 37.41807 | -5.85344 | 494 ft | 131 kts | 268° |
| 2026-04-23 18:02 | 37.41803 | -5.86504 | 316 ft | 133 kts | 266° |
| 2026-04-23 18:02 | 37.41799 | -5.87658 | 124 ft | 130 kts | 267° |
| 2026-04-23 18:02 | 37.41793 | -5.88666 | 105 ft | 95 kts | 269° |
| 2026-04-23 18:03 | 37.41792 | -5.89281 | 100 ft | 46 kts | 269° |
| 2026-04-23 18:03 | 37.41790 | -5.89617 | 98 ft | 35 kts | 271° |
| 2026-04-23 18:03 | 37.41838 | -5.89792 | 98 ft | 13 kts | 326° |
| 2026-04-23 18:03 | 37.41895 | -5.89826 | 97 ft | 6 kts | 338° |
| 2026-04-23 18:04 | 37.41936 | -5.89847 | 97 ft | 6 kts | 337° |
| 2026-04-23 18:04 | 37.41977 | -5.89869 | 97 ft | 6 kts | 337° |
| 2026-04-23 18:04 | 37.42017 | -5.89890 | 96 ft | 7 kts | 337° |
| 2026-04-23 18:04 | 37.42066 | -5.89916 | 94 ft | 8 kts | 337° |
| 2026-04-23 18:05 | 37.42126 | -5.89926 | 94 ft | 11 kts | 22° |
| 2026-04-23 18:05 | 37.42177 | -5.89865 | 94 ft | 9 kts | 46° |
| 2026-04-23 18:05 | 37.42221 | -5.89883 | 94 ft | 7 kts | 314° |
| 2026-04-23 18:05 | 37.42241 | -5.89909 | 94 ft | 3 kts | 315° |
| 2026-04-23 18:06 | 37.42245 | -5.89914 | 96 ft | 0 kts | 315° |